createdAt,value
2018-12-11T00:01:29.453Z,4.43
2018-12-11T00:04:00.288Z,4.63
2018-12-11T00:06:31.255Z,4.83
2018-12-11T00:09:02.433Z,4.40
2018-12-11T00:11:34.429Z,4.50
2018-12-11T00:14:06.917Z,5.87
2018-12-11T00:16:39.437Z,5.50
2018-12-11T00:19:09.663Z,6.10
2018-12-11T00:21:39.280Z,5.10
2018-12-11T00:24:10.509Z,4.57
2018-12-11T00:26:42.319Z,5.37
2018-12-11T00:29:14.719Z,4.43
2018-12-11T00:31:44.821Z,5.17
2018-12-11T00:34:14.467Z,4.83
2018-12-11T00:36:45.575Z,4.67
2018-12-11T00:39:15.434Z,4.67
2018-12-11T00:41:51.386Z,3.80
2018-12-11T00:44:23.407Z,3.80
2018-12-11T00:46:53.809Z,4.60
2018-12-11T00:49:24.497Z,3.80
2018-12-11T00:51:54.869Z,4.50
2018-12-11T00:54:26.366Z,3.77
2018-12-11T00:56:58.568Z,3.80
2018-12-11T00:59:29.932Z,3.40
2018-12-11T01:01:59.727Z,5.43
2018-12-11T01:04:30.688Z,4.37
2018-12-11T01:07:04.838Z,3.60
2018-12-11T01:09:34.648Z,3.90
2018-12-11T01:12:05.567Z,6.87
2018-12-11T01:14:36.919Z,4.53
2018-12-11T01:17:06.888Z,3.60
2018-12-11T01:19:37.774Z,3.20
2018-12-11T01:22:08.770Z,3.10
2018-12-11T01:24:41.028Z,2.87
2018-12-11T01:27:13.804Z,4.93
2018-12-11T01:29:44.731Z,3.20
2018-12-11T01:32:19.072Z,6.73
2018-12-11T01:34:54.877Z,3.80
2018-12-11T01:37:24.628Z,3.00
2018-12-11T01:39:56.370Z,2.50
2018-12-11T01:42:26.100Z,4.80
2018-12-11T01:44:56.537Z,3.03
2018-12-11T01:47:26.866Z,3.10
2018-12-11T01:49:56.812Z,4.50
2018-12-11T01:52:27.784Z,3.40
2018-12-11T01:54:58.154Z,3.60
2018-12-11T01:57:28.911Z,3.00
2018-12-11T01:59:58.880Z,4.00
2018-12-11T02:02:30.658Z,4.77
2018-12-11T02:05:03.217Z,4.83
2018-12-11T02:07:33.224Z,3.50
2018-12-11T02:10:05.481Z,3.60
2018-12-11T02:12:37.962Z,3.53
2018-12-11T02:15:09.219Z,3.43
2018-12-11T02:17:39.270Z,3.30
2018-12-11T02:20:10.734Z,3.93
2018-12-11T02:22:40.706Z,3.50
2018-12-11T02:25:12.027Z,4.23
2018-12-11T02:27:46.555Z,4.10
2018-12-11T02:30:22.036Z,3.87
2018-12-11T02:32:51.961Z,3.70
2018-12-11T02:35:23.561Z,5.47
2018-12-11T02:37:56.067Z,4.03
2018-12-11T02:40:28.130Z,3.40
2018-12-11T02:42:59.623Z,3.77
2018-12-11T02:45:32.245Z,3.93
2018-12-11T02:48:02.888Z,4.50
2018-12-11T02:50:33.384Z,4.57
2018-12-11T02:53:03.318Z,3.53
2018-12-11T02:55:33.987Z,4.07
2018-12-11T02:58:04.469Z,3.50
2018-12-11T03:00:35.217Z,6.73
2018-12-11T03:03:05.129Z,4.47
2018-12-11T03:05:35.968Z,3.87
2018-12-11T03:08:06.505Z,4.20
2018-12-11T03:10:36.973Z,3.97
2018-12-11T03:13:07.459Z,4.77
2018-12-11T03:15:37.945Z,4.17
2018-12-11T03:18:08.074Z,4.27
2018-12-11T03:20:39.067Z,3.83
2018-12-11T03:23:09.381Z,5.40
2018-12-11T03:25:39.411Z,5.70
2018-12-11T03:28:11.782Z,4.07
2018-12-11T03:30:41.447Z,4.40
2018-12-11T03:33:11.270Z,4.20
2018-12-11T03:35:42.951Z,7.53
2018-12-11T03:38:18.767Z,6.77
2018-12-11T03:40:50.529Z,4.10
2018-12-11T03:43:21.313Z,4.93
2018-12-11T03:45:52.742Z,6.33
2018-12-11T03:48:22.939Z,4.77
2018-12-11T03:50:54.150Z,4.70
2018-12-11T03:53:25.691Z,5.93
2018-12-11T03:55:57.360Z,5.47
2018-12-11T03:58:28.352Z,4.30
2018-12-11T04:00:59.361Z,4.10
2018-12-11T04:03:31.288Z,6.73
2018-12-11T04:06:03.507Z,5.57
2018-12-11T04:08:33.425Z,7.07
2018-12-11T04:11:04.724Z,4.60
2018-12-11T04:13:36.326Z,5.90
2018-12-11T04:16:08.905Z,5.33
2018-12-11T04:18:38.476Z,4.77
2018-12-11T04:21:09.518Z,4.40
2018-12-11T04:23:39.361Z,5.37
2018-12-11T04:26:10.810Z,4.87
2018-12-11T04:28:41.516Z,5.70
2018-12-11T04:31:12.376Z,4.00
2018-12-11T04:33:42.495Z,4.73
2018-12-11T04:36:19.217Z,6.10
2018-12-11T04:38:50.213Z,4.07
2018-12-11T04:41:20.828Z,4.53
2018-12-11T04:43:51.669Z,3.97
2018-12-11T04:46:22.871Z,4.00
2018-12-11T04:48:52.858Z,3.20
2018-12-11T04:51:23.887Z,4.73
2018-12-11T04:53:54.555Z,4.30
2018-12-11T04:56:25.520Z,5.90
2018-12-11T04:58:56.834Z,5.30
2018-12-11T05:01:26.672Z,4.97
2018-12-11T05:03:57.614Z,5.50
2018-12-11T05:06:27.956Z,3.70
2018-12-11T05:08:58.741Z,4.47
2018-12-11T05:11:30.566Z,3.87
2018-12-11T05:14:02.711Z,3.47
2018-12-11T05:16:34.334Z,8.47
2018-12-11T05:19:08.329Z,3.90
2018-12-11T05:21:43.356Z,4.40
2018-12-11T05:24:15.376Z,6.20
2018-12-11T05:26:48.790Z,6.23
2018-12-11T05:29:19.732Z,7.03
2018-12-11T05:31:51.974Z,6.53
2018-12-11T05:34:23.326Z,4.10
2018-12-11T05:36:52.841Z,5.07
2018-12-11T05:39:24.056Z,4.73
2018-12-11T05:41:54.898Z,3.70
2018-12-11T05:44:31.366Z,7.57
2018-12-11T05:47:01.968Z,3.83
2018-12-11T05:49:32.544Z,4.47
2018-12-11T05:52:03.835Z,4.43
2018-12-11T05:54:33.864Z,4.97
2018-12-11T05:57:04.799Z,4.83
2018-12-11T05:59:36.330Z,3.83
2018-12-11T06:02:05.966Z,4.23
2018-12-11T06:04:36.615Z,6.27
2018-12-11T06:07:07.555Z,5.73
2018-12-11T06:09:38.533Z,5.40
2018-12-11T06:12:08.964Z,5.83
2018-12-11T06:14:38.966Z,4.30
2018-12-11T06:17:10.117Z,5.13
2018-12-11T06:19:40.232Z,5.10
2018-12-11T06:22:10.878Z,6.20
2018-12-11T06:24:42.075Z,4.97
2018-12-11T06:27:12.910Z,4.80
2018-12-11T06:29:43.832Z,4.23
2018-12-11T06:32:14.586Z,4.20
2018-12-11T06:34:44.295Z,6.20
2018-12-11T06:37:14.892Z,6.10
2018-12-11T06:39:45.462Z,6.13
2018-12-11T06:42:16.263Z,6.20
2018-12-11T06:44:46.143Z,4.93
2018-12-11T06:47:18.336Z,6.67
2018-12-11T06:49:47.890Z,8.17
2018-12-11T06:52:18.491Z,5.10
2018-12-11T06:54:48.999Z,5.93
2018-12-11T06:57:19.388Z,5.73
2018-12-11T06:59:49.180Z,5.70
2018-12-11T07:02:21.274Z,7.73
2018-12-11T07:04:52.178Z,5.03
2018-12-11T07:07:22.548Z,6.23
2018-12-11T07:09:52.272Z,4.57
2018-12-11T07:12:23.987Z,6.50
2018-12-11T07:14:54.991Z,4.87
2018-12-11T07:17:26.639Z,5.17
2018-12-11T07:19:56.145Z,6.13
2018-12-11T07:22:27.141Z,6.27
2018-12-11T07:24:59.452Z,6.10
2018-12-11T07:27:29.335Z,4.80
2018-12-11T07:29:59.676Z,5.87
2018-12-11T07:32:30.199Z,4.50
2018-12-11T07:35:00.556Z,4.60
2018-12-11T07:37:31.312Z,4.97
2018-12-11T07:40:02.280Z,5.10
2018-12-11T07:42:32.306Z,4.43
2018-12-11T07:45:03.082Z,7.40
2018-12-11T07:47:33.709Z,5.43
2018-12-11T07:50:04.433Z,5.80
2018-12-11T07:52:34.463Z,6.00
2018-12-11T07:55:06.645Z,5.50
2018-12-11T07:57:36.853Z,4.07
2018-12-11T08:00:08.264Z,5.10
2018-12-11T08:02:39.709Z,4.30
2018-12-11T08:05:13.203Z,6.03
2018-12-11T08:07:43.693Z,5.17
2018-12-11T08:10:16.269Z,5.00
2018-12-11T08:12:46.893Z,4.27
2018-12-11T08:15:16.858Z,4.17
2018-12-11T08:17:48.515Z,4.37
2018-12-11T08:20:19.504Z,5.53
2018-12-11T08:22:49.481Z,5.03
2018-12-11T08:25:21.129Z,3.70
2018-12-11T08:27:50.887Z,5.47
2018-12-11T08:30:26.383Z,4.93
2018-12-11T08:32:58.555Z,6.53
2018-12-11T08:35:29.688Z,10.27
2018-12-11T08:37:59.690Z,4.27
2018-12-11T08:40:30.722Z,5.57
2018-12-11T08:43:00.621Z,4.47
2018-12-11T08:45:31.651Z,6.03
2018-12-11T08:48:02.156Z,5.73
2018-12-11T08:50:34.617Z,4.50
2018-12-11T08:53:06.969Z,5.07
2018-12-11T08:55:39.664Z,4.27
2018-12-11T08:58:15.171Z,4.40
2018-12-11T09:00:50.779Z,4.83
2018-12-11T09:03:20.905Z,4.57
2018-12-11T09:05:52.990Z,7.10
2018-12-11T09:08:23.904Z,4.50
2018-12-11T09:10:55.534Z,4.27
2018-12-11T09:13:26.113Z,5.37
2018-12-11T09:15:58.174Z,5.17
2018-12-11T09:18:27.706Z,6.97
2018-12-11T09:20:58.140Z,9.57
2018-12-11T09:23:28.979Z,3.90
2018-12-11T09:26:00.047Z,7.97
2018-12-11T09:28:29.936Z,5.20
2018-12-11T09:31:01.012Z,4.10
2018-12-11T09:33:31.764Z,3.80
2018-12-11T09:36:06.056Z,3.83
2018-12-11T09:38:35.936Z,3.43
2018-12-11T09:41:14.204Z,4.20
2018-12-11T09:43:50.370Z,3.20
2018-12-11T09:46:20.828Z,6.67
2018-12-11T09:48:55.623Z,4.93
2018-12-11T09:51:26.048Z,3.60
2018-12-11T09:53:58.338Z,3.83
2018-12-11T09:56:30.248Z,5.73
2018-12-11T09:59:02.281Z,6.90
2018-12-11T10:01:33.207Z,5.37
2018-12-11T10:04:05.307Z,3.57
2018-12-11T10:06:40.161Z,4.17
2018-12-11T10:09:13.034Z,7.80
2018-12-11T10:11:45.688Z,6.30
2018-12-11T10:14:19.551Z,5.67
2018-12-11T10:16:51.630Z,3.40
2018-12-11T10:19:22.276Z,3.90
2018-12-11T10:21:53.158Z,19.43
2018-12-11T10:24:25.292Z,4.10
2018-12-11T10:26:57.825Z,3.87
2018-12-11T10:29:28.881Z,3.10
2018-12-11T10:32:01.669Z,5.63
2018-12-11T10:34:32.454Z,4.60
2018-12-11T10:37:03.261Z,4.13
2018-12-11T10:39:33.407Z,4.30
2018-12-11T10:42:04.903Z,3.57
2018-12-11T10:44:35.816Z,7.27
2018-12-11T10:47:06.148Z,4.83
2018-12-11T10:49:36.664Z,3.60
2018-12-11T10:52:07.948Z,3.63
2018-12-11T10:54:38.411Z,7.27
2018-12-11T10:57:09.541Z,3.87
2018-12-11T10:59:43.620Z,6.73
2018-12-11T11:02:19.117Z,4.27
2018-12-11T11:04:50.252Z,3.23
2018-12-11T11:07:21.525Z,2.63
2018-12-11T11:10:07.634Z,3.33
2018-12-11T11:12:39.577Z,2.93
2018-12-11T11:15:09.237Z,4.97
2018-12-11T11:17:41.525Z,2.93
2018-12-11T11:20:11.572Z,4.33
2018-12-11T11:22:43.454Z,3.37
2018-12-11T11:25:15.529Z,3.07
2018-12-11T11:27:45.918Z,3.03
2018-12-11T11:30:17.006Z,3.00
2018-12-11T11:32:46.987Z,4.67
2018-12-11T11:35:17.893Z,4.80
2018-12-11T11:37:48.545Z,2.50
2018-12-11T11:40:18.648Z,2.40
2018-12-11T11:42:49.447Z,3.43
2018-12-11T11:45:20.928Z,3.10
2018-12-11T11:47:51.367Z,2.97
2018-12-11T11:50:22.264Z,2.07
2018-12-11T11:52:52.862Z,2.13
2018-12-11T11:55:24.333Z,3.47
2018-12-11T11:57:54.537Z,2.80
2018-12-11T12:00:25.475Z,2.47
2018-12-11T12:02:56.042Z,2.37
2018-12-11T12:05:27.292Z,2.43
2018-12-11T12:07:57.550Z,3.93
2018-12-11T12:10:28.376Z,2.90
2018-12-11T12:12:59.789Z,3.50
2018-12-11T12:15:30.806Z,2.73
2018-12-11T12:18:00.911Z,2.57
2018-12-11T12:20:31.624Z,3.43
2018-12-11T12:23:02.635Z,5.70
2018-12-11T12:25:32.654Z,5.93
2018-12-11T12:28:04.096Z,4.63
2018-12-11T12:30:34.966Z,1.93
2018-12-11T12:33:04.918Z,4.20
2018-12-11T12:35:36.423Z,8.23
2018-12-11T12:38:07.119Z,3.00
2018-12-11T12:40:44.354Z,6.80
2018-12-11T12:43:16.248Z,4.87
2018-12-11T12:45:47.537Z,3.80
2018-12-11T12:48:20.026Z,6.33
2018-12-11T12:50:51.421Z,7.70
2018-12-11T12:53:22.067Z,4.03
2018-12-11T12:55:53.449Z,4.30
2018-12-11T12:58:26.954Z,6.50
2018-12-11T13:00:59.648Z,7.10
2018-12-11T13:03:30.458Z,3.40
2018-12-11T13:06:00.249Z,4.17
2018-12-11T13:08:31.246Z,4.07
2018-12-11T13:11:02.591Z,4.90
2018-12-11T13:13:33.051Z,3.90
2018-12-11T13:16:03.150Z,3.17
2018-12-11T13:18:33.014Z,4.30
2018-12-11T13:21:04.788Z,7.30
2018-12-11T13:23:36.507Z,4.13
2018-12-11T13:26:09.589Z,6.43
2018-12-11T13:28:40.284Z,5.80
2018-12-11T13:31:10.351Z,4.90
2018-12-11T13:33:40.265Z,7.57
2018-12-11T13:36:10.963Z,5.40
2018-12-11T13:38:40.724Z,7.20
2018-12-11T13:41:17.761Z,5.83
2018-12-11T13:43:50.150Z,3.87
2018-12-11T13:46:22.233Z,6.10
2018-12-11T13:48:53.088Z,6.17
2018-12-11T13:51:22.900Z,9.10
2018-12-11T13:53:56.791Z,5.00
2018-12-11T13:56:29.125Z,7.47
2018-12-11T13:59:00.135Z,4.93
2018-12-11T14:01:30.562Z,4.87
2018-12-11T14:04:01.124Z,6.40
2018-12-11T14:06:31.824Z,13.47
2018-12-11T14:09:06.616Z,10.13
2018-12-11T14:11:36.194Z,10.30
2018-12-11T14:14:07.275Z,5.43
2018-12-11T14:16:37.109Z,8.83
2018-12-11T14:19:08.389Z,4.93
2018-12-11T14:21:39.734Z,7.83
2018-12-11T14:24:16.476Z,5.20
2018-12-11T14:26:47.393Z,5.70
2018-12-11T14:29:18.404Z,6.03
2018-12-11T14:31:50.471Z,5.43
2018-12-11T14:34:22.582Z,7.83
2018-12-11T14:36:53.464Z,6.47
2018-12-11T14:39:25.342Z,8.00
2018-12-11T14:41:56.412Z,4.50
2018-12-11T14:44:28.100Z,7.63
2018-12-11T14:46:58.067Z,5.40
2018-12-11T14:49:28.911Z,11.33
2018-12-11T14:52:00.015Z,9.67
2018-12-11T14:54:30.805Z,5.63
2018-12-11T14:57:00.968Z,5.30
2018-12-11T14:59:31.549Z,10.73
2018-12-11T15:02:02.778Z,12.03
2018-12-11T15:04:33.493Z,8.20
2018-12-11T15:07:03.604Z,11.70
2018-12-11T15:09:43.502Z,12.57
2018-12-11T15:12:15.412Z,11.80
2018-12-11T15:14:47.849Z,12.83
2018-12-11T15:17:21.302Z,10.20
2018-12-11T15:19:51.778Z,8.50
2018-12-11T15:22:22.668Z,8.87
2018-12-11T15:24:52.546Z,10.83
2018-12-11T15:27:24.192Z,7.70
2018-12-11T15:29:54.937Z,6.53
2018-12-11T15:32:26.099Z,5.23
2018-12-11T15:34:56.031Z,5.17
2018-12-11T15:37:27.309Z,8.30
2018-12-11T15:39:57.094Z,6.20
2018-12-11T15:42:27.640Z,6.13
2018-12-11T15:44:58.051Z,7.60
2018-12-11T15:47:28.507Z,6.53
2018-12-11T15:49:59.378Z,3.97
2018-12-11T15:52:30.038Z,5.00
2018-12-11T15:55:02.112Z,6.57
2018-12-11T15:57:34.737Z,4.70
2018-12-11T16:00:07.070Z,6.30
2018-12-11T16:02:38.531Z,6.67
2018-12-11T16:05:09.545Z,7.27
2018-12-11T16:07:44.213Z,6.87
2018-12-11T16:10:19.472Z,5.07
2018-12-11T16:12:50.747Z,10.20
2018-12-11T16:15:21.873Z,5.30
2018-12-11T16:17:52.879Z,7.90
2018-12-11T16:20:23.735Z,8.10
2018-12-11T16:22:54.022Z,6.10
2018-12-11T16:25:24.461Z,5.63
2018-12-11T16:27:55.003Z,7.87
2018-12-11T16:30:25.544Z,6.60
2018-12-11T16:32:55.849Z,5.00
2018-12-11T16:35:28.689Z,7.03
2018-12-11T16:38:00.752Z,8.93
2018-12-11T16:40:32.299Z,10.90
2018-12-11T16:43:05.169Z,6.40
2018-12-11T16:45:34.919Z,7.27
2018-12-11T16:48:07.362Z,6.80
2018-12-11T16:50:37.140Z,8.63
2018-12-11T16:53:07.399Z,5.80
2018-12-11T16:55:40.287Z,9.63
2018-12-11T16:58:14.334Z,10.17
2018-12-11T17:00:44.383Z,7.80
2018-12-11T17:03:17.125Z,7.10
2018-12-11T17:05:47.795Z,7.33
2018-12-11T17:08:20.251Z,8.57
2018-12-11T17:10:50.022Z,9.80
2018-12-11T17:13:23.812Z,11.67
2018-12-11T17:15:54.482Z,10.63
2018-12-11T17:18:25.048Z,12.17
2018-12-11T17:20:55.467Z,9.73
2018-12-11T17:23:26.044Z,8.40
2018-12-11T17:25:56.091Z,10.03
2018-12-11T17:28:26.777Z,8.30
2018-12-11T17:30:57.079Z,8.93
2018-12-11T17:33:27.868Z,9.87
2018-12-11T17:35:58.195Z,7.60
2018-12-11T17:38:28.855Z,7.17
2018-12-11T17:40:59.388Z,12.23
2018-12-11T17:43:30.242Z,8.77
2018-12-11T17:46:00.172Z,6.13
2018-12-11T17:48:31.421Z,6.87
2018-12-11T17:51:02.391Z,8.03
2018-12-11T17:53:32.663Z,6.20
2018-12-11T17:56:04.826Z,7.37
2018-12-11T17:58:36.916Z,8.10
2018-12-11T18:01:07.965Z,7.60
2018-12-11T18:03:38.454Z,10.40
2018-12-11T18:06:10.462Z,6.23
2018-12-11T18:08:40.692Z,6.17
2018-12-11T18:11:11.402Z,8.37
2018-12-11T18:13:41.762Z,8.67
2018-12-11T18:16:12.261Z,6.33
2018-12-11T18:18:42.871Z,5.90
2018-12-11T18:21:17.668Z,5.60
2018-12-11T18:23:50.687Z,5.57
2018-12-11T18:26:22.069Z,6.80
2018-12-11T18:28:54.683Z,7.60
2018-12-11T18:31:24.881Z,5.83
2018-12-11T18:33:59.892Z,6.67
2018-12-11T18:36:31.486Z,9.13
2018-12-11T18:39:02.435Z,8.37
2018-12-11T18:41:35.923Z,10.07
2018-12-11T18:44:09.744Z,6.87
2018-12-11T18:46:41.698Z,6.73
2018-12-11T18:49:17.546Z,5.53
2018-12-11T18:51:50.121Z,6.20
2018-12-11T18:54:21.648Z,6.50
2018-12-11T18:56:53.567Z,7.07
2018-12-11T18:59:25.752Z,7.40
2018-12-11T19:01:58.123Z,7.90
2018-12-11T19:04:34.246Z,6.20
2018-12-11T19:09:53.054Z,7.50
2018-12-11T19:12:25.360Z,9.20
2018-12-11T19:15:04.594Z,8.13
2018-12-11T19:17:43.392Z,10.90
2018-12-11T19:20:17.179Z,10.40
2018-12-11T19:22:49.076Z,10.53
2018-12-11T19:25:23.278Z,8.10
2018-12-11T19:27:57.092Z,8.50
2018-12-11T19:30:28.508Z,8.13
2018-12-11T19:32:59.652Z,7.90
2018-12-11T19:35:33.134Z,8.60
2018-12-11T19:38:05.531Z,8.70
2018-12-11T19:40:40.632Z,8.23
2018-12-11T19:43:10.636Z,9.90
2018-12-11T19:45:40.979Z,9.23
2018-12-11T19:48:13.258Z,9.63
2018-12-11T19:50:46.529Z,7.13
2018-12-11T19:53:16.883Z,10.17
2018-12-11T19:55:48.012Z,10.10
2018-12-11T19:58:22.719Z,9.20
2018-12-11T20:00:54.363Z,7.90
2018-12-11T20:03:25.962Z,9.10
2018-12-11T20:05:58.115Z,8.40
2018-12-11T20:08:31.106Z,10.40
2018-12-11T20:11:02.648Z,7.60
2018-12-11T20:13:33.635Z,7.90
2018-12-11T20:16:07.509Z,8.80
2018-12-11T20:18:38.801Z,8.53
2018-12-11T20:21:10.865Z,11.60
2018-12-11T20:23:40.938Z,9.30
2018-12-11T20:26:12.369Z,11.50
2018-12-11T20:28:46.344Z,8.40
2018-12-11T20:31:21.680Z,7.50
2018-12-11T20:33:54.185Z,11.47
2018-12-11T20:36:24.878Z,8.13
2018-12-11T20:38:54.883Z,11.80
2018-12-11T20:41:25.740Z,9.03
2018-12-11T20:43:57.065Z,9.33
2018-12-11T20:46:33.446Z,12.80
2018-12-11T20:49:07.237Z,9.27
2018-12-11T20:51:36.948Z,13.67
2018-12-11T20:54:06.810Z,8.43
2018-12-11T20:56:38.009Z,8.63
2018-12-11T20:59:08.159Z,9.50
2018-12-11T21:01:39.422Z,11.53
2018-12-11T21:04:09.539Z,8.93
2018-12-11T21:06:40.405Z,8.70
2018-12-11T21:09:14.575Z,8.83
2018-12-11T21:11:47.704Z,13.60
2018-12-11T21:14:19.150Z,10.07
2018-12-11T21:16:51.153Z,9.70
2018-12-11T21:19:24.408Z,9.60
2018-12-11T21:21:54.977Z,11.20
2018-12-11T21:24:27.431Z,11.27
2018-12-11T21:26:57.123Z,10.83
2018-12-11T21:29:28.939Z,8.50
2018-12-11T21:32:01.531Z,8.60
2018-12-11T21:34:31.695Z,12.00
2018-12-11T21:37:02.381Z,9.73
2018-12-11T21:39:32.985Z,10.77
2018-12-11T21:42:03.241Z,10.47
2018-12-11T21:44:33.999Z,8.97
2018-12-11T21:47:05.378Z,9.73
2018-12-11T21:49:36.546Z,7.90
2018-12-11T21:52:06.719Z,6.87
2018-12-11T21:54:37.266Z,8.17
2018-12-11T21:57:08.379Z,8.70
2018-12-11T21:59:39.861Z,7.77
2018-12-11T22:02:09.891Z,8.53
2018-12-11T22:04:40.385Z,7.40
2018-12-11T22:07:10.227Z,7.73
2018-12-11T22:09:41.239Z,7.93
2018-12-11T22:12:17.543Z,9.20
2018-12-11T22:14:48.533Z,7.70
2018-12-11T22:17:20.092Z,7.40
2018-12-11T22:19:52.261Z,7.33
2018-12-11T22:22:24.410Z,8.53
2018-12-11T22:24:56.236Z,7.97
2018-12-11T22:27:28.873Z,8.13
2018-12-11T22:30:01.200Z,7.77
2018-12-11T22:32:31.630Z,8.27
2018-12-11T22:35:02.203Z,8.03
2018-12-11T22:37:33.692Z,7.47
2018-12-11T22:40:04.897Z,7.67
2018-12-11T22:42:37.560Z,7.40
2018-12-11T22:45:08.661Z,8.03
2018-12-11T22:47:42.366Z,8.07
2018-12-11T22:50:18.379Z,8.90
2018-12-11T22:52:50.468Z,8.13
2018-12-11T22:55:22.931Z,7.23
2018-12-11T22:57:53.519Z,9.33
2018-12-11T23:00:24.424Z,8.47
2018-12-11T23:02:54.944Z,8.30
2018-12-11T23:05:25.692Z,8.30
2018-12-11T23:07:56.492Z,7.20
2018-12-11T23:10:27.495Z,8.80
2018-12-11T23:12:57.418Z,8.97
2018-12-11T23:15:28.287Z,9.97
2018-12-11T23:17:58.421Z,7.50
2018-12-11T23:20:30.035Z,7.27
2018-12-11T23:22:59.615Z,7.60
2018-12-11T23:25:30.650Z,7.70
2018-12-11T23:28:00.684Z,7.70
2018-12-11T23:30:31.610Z,8.83
2018-12-11T23:33:01.494Z,6.50
2018-12-11T23:35:32.873Z,6.93
2018-12-11T23:38:03.638Z,6.93
2018-12-11T23:40:33.696Z,6.70
2018-12-11T23:43:05.131Z,5.67
2018-12-11T23:45:35.104Z,5.73
2018-12-11T23:48:06.003Z,6.23
2018-12-11T23:50:36.230Z,7.80
2018-12-11T23:53:06.715Z,6.70
2018-12-11T23:55:37.555Z,6.60
2018-12-11T23:58:08.720Z,6.50
